Time;durP1;ratioP1;P1;durP2;ratioP2;P2;SDS_P1;SDS_P2;PMS_P1;PMS_P2;Temp;Humidity;BMP_temperature;BMP_pressure;BME280_temperature;BME280_humidity;BME280_pressure;Samples;Min_cycle;Max_cycle;Signal;HPM_P1;HPM_P2
2023/04/16 00:00:06;;;;;;;4.80;3.90;;;4.90;99.90;;;;;;5096202;28;20032;-81
2023/04/16 00:02:32;;;;;;;6.37;4.37;;;4.90;99.90;;;;;;5097979;28;20070;-81
2023/04/16 00:04:58;;;;;;;5.33;4.37;;;4.90;99.90;;;;;;5099773;28;20023;-81
2023/04/16 00:07:23;;;;;;;5.00;4.40;;;4.90;99.90;;;;;;5102061;28;20385;-81
2023/04/16 00:09:49;;;;;;;7.30;5.40;;;4.90;99.90;;;;;;5102177;28;20050;-81
2023/04/16 00:12:17;;;;;;;7.30;5.63;;;4.90;99.90;;;;;;5105173;28;20099;-80
2023/04/16 00:14:43;;;;;;;7.37;6.03;;;4.90;99.90;;;;;;5107237;28;20023;-80
2023/04/16 00:17:09;;;;;;;9.13;6.50;;;4.90;99.90;;;;;;5104706;28;20043;-81
2023/04/16 00:19:34;;;;;;;8.27;6.83;;;4.90;99.90;;;;;;5103997;28;20039;-81
2023/04/16 00:22:00;;;;;;;9.47;7.00;;;4.80;99.90;;;;;;5104468;28;20054;-80
2023/04/16 00:24:26;;;;;;;8.23;6.53;;;4.80;99.90;;;;;;5104871;28;20077;-80
2023/04/16 00:26:51;;;;;;;9.77;7.90;;;4.80;99.90;;;;;;5104529;28;20221;-80
2023/04/16 00:29:17;;;;;;;11.07;8.03;;;4.80;99.90;;;;;;5104215;28;20105;-83
2023/04/16 00:31:42;;;;;;;12.27;9.23;;;4.80;99.90;;;;;;5103612;28;21470;-80
2023/04/16 00:34:08;;;;;;;10.93;8.60;;;4.80;99.90;;;;;;5103128;28;20039;-80
2023/04/16 00:36:33;;;;;;;11.33;8.73;;;4.80;99.90;;;;;;5101734;28;20387;-81
2023/04/16 00:38:59;;;;;;;10.23;7.70;;;4.80;99.90;;;;;;5104645;28;20166;-81
2023/04/16 00:41:25;;;;;;;10.13;8.30;;;4.80;99.90;;;;;;5104569;28;20028;-81
2023/04/16 00:43:51;;;;;;;10.93;8.40;;;4.80;99.90;;;;;;5105085;28;20036;-81
2023/04/16 00:46:20;;;;;;;10.90;8.20;;;4.80;99.90;;;;;;5105697;28;20096;-81
2023/04/16 00:48:46;;;;;;;11.43;8.30;;;4.80;99.90;;;;;;5105367;28;20038;-81
2023/04/16 00:51:11;;;;;;;9.80;8.03;;;4.80;99.90;;;;;;5103794;28;20088;-80
2023/04/16 00:53:37;;;;;;;11.60;9.27;;;4.90;99.90;;;;;;5102340;28;20050;-81
2023/04/16 00:56:05;;;;;;;9.23;7.90;;;4.80;99.90;;;;;;5103305;28;20047;-81
2023/04/16 00:58:32;;;;;;;10.43;8.50;;;4.90;99.90;;;;;;5103787;28;20027;-81
2023/04/16 01:00:59;;;;;;;9.63;7.00;;;4.80;99.90;;;;;;5102234;28;20027;-81
2023/04/16 01:03:38;;;;;;;10.57;7.77;;;4.90;99.90;;;;;;5102651;28;20043;-81
2023/04/16 01:06:04;;;;;;;10.13;7.07;;;4.90;99.90;;;;;;5102892;28;20031;-81
2023/04/16 01:08:30;;;;;;;9.73;7.10;;;4.90;99.90;;;;;;5103219;28;20024;-81
2023/04/16 01:10:56;;;;;;;8.07;6.10;;;4.90;99.90;;;;;;5101026;28;20464;-82
2023/04/16 01:13:21;;;;;;;7.30;5.80;;;4.80;99.90;;;;;;5101629;28;20032;-82
2023/04/16 01:15:47;;;;;;;6.60;5.67;;;4.90;99.90;;;;;;5103582;28;20032;-81
2023/04/16 01:18:16;;;;;;;5.97;4.77;;;4.90;99.90;;;;;;5103002;28;20070;-81
2023/04/16 01:20:42;;;;;;;6.70;5.10;;;4.90;99.90;;;;;;5101911;28;20027;-81
2023/04/16 01:23:08;;;;;;;5.10;4.30;;;4.90;99.90;;;;;;5102630;28;20115;-81
2023/04/16 01:25:33;;;;;;;4.53;3.83;;;4.90;99.90;;;;;;5104984;28;20024;-80
2023/04/16 01:27:59;;;;;;;4.53;3.50;;;5.00;99.90;;;;;;5106477;28;20194;-81
2023/04/16 01:30:25;;;;;;;3.77;2.93;;;4.90;99.90;;;;;;5105376;28;20015;-81
2023/04/16 01:32:50;;;;;;;3.97;3.00;;;5.00;99.90;;;;;;5104258;28;20080;-81
2023/04/16 01:35:19;;;;;;;3.87;2.90;;;5.10;99.90;;;;;;5102976;28;20036;-81
2023/04/16 01:37:45;;;;;;;3.40;2.83;;;5.10;99.90;;;;;;5103114;28;20133;-81
2023/04/16 01:40:10;;;;;;;3.77;2.90;;;5.10;99.90;;;;;;5102417;28;20032;-81
2023/04/16 01:42:37;;;;;;;3.90;2.80;;;5.10;99.90;;;;;;5103339;28;20047;-81
2023/04/16 01:45:03;;;;;;;3.17;2.70;;;5.00;99.90;;;;;;5103488;28;20039;-81
2023/04/16 01:47:29;;;;;;;3.90;2.87;;;5.00;99.90;;;;;;5102187;28;20063;-81
2023/04/16 01:49:54;;;;;;;3.90;2.93;;;5.00;99.90;;;;;;5104405;28;20028;-81
2023/04/16 01:52:20;;;;;;;3.27;2.63;;;5.00;99.90;;;;;;5102942;28;20028;-81
2023/04/16 01:54:45;;;;;;;3.80;2.80;;;5.00;99.90;;;;;;5104060;28;20020;-82
2023/04/16 01:57:11;;;;;;;3.77;2.80;;;5.00;99.90;;;;;;5103638;28;20038;-81
2023/04/16 01:59:36;;;;;;;3.23;2.70;;;5.00;99.90;;;;;;5101544;28;20054;-81
2023/04/16 02:02:12;;;;;;;3.60;2.77;;;5.00;99.90;;;;;;5100515;28;20059;-81
2023/04/16 02:04:38;;;;;;;;;;;5.00;99.90;;;;;;5082944;28;20094;-81
2023/04/16 02:07:04;;;;;;;3.80;2.90;;;5.00;99.90;;;;;;5102141;28;19950;-80
2023/04/16 02:09:30;;;;;;;5.33;3.80;;;5.00;99.90;;;;;;5101690;28;20047;-81
2023/04/16 02:11:56;;;;;;;5.43;3.83;;;5.00;99.90;;;;;;5099005;28;20055;-81
2023/04/16 02:14:24;;;;;;;5.30;3.90;;;5.00;99.90;;;;;;5101255;28;20024;-81
2023/04/16 02:16:50;;;;;;;4.83;4.17;;;5.00;99.90;;;;;;5101150;28;20016;-81
2023/04/16 02:19:16;;;;;;;7.03;4.60;;;5.00;99.90;;;;;;5098325;28;20031;-81
2023/04/16 02:21:41;;;;;;;6.97;5.70;;;5.00;99.90;;;;;;5101441;28;20039;-81
2023/04/16 02:24:07;;;;;;;6.77;5.73;;;5.00;99.90;;;;;;5098834;28;20049;-81
2023/04/16 02:26:32;;;;;;;7.67;6.13;;;5.00;99.90;;;;;;5100464;28;20028;-81
2023/04/16 02:28:58;;;;;;;6.93;5.97;;;5.00;99.90;;;;;;5098827;28;20023;-81
2023/04/16 02:31:23;;;;;;;8.83;6.97;;;5.00;99.90;;;;;;5100148;28;20039;-81
2023/04/16 02:33:49;;;;;;;8.33;6.43;;;5.00;99.90;;;;;;5100499;28;20023;-81
2023/04/16 02:36:15;;;;;;;10.33;6.63;;;5.00;99.90;;;;;;5099554;28;20490;-81
2023/04/16 02:38:40;;;;;;;8.60;7.47;;;5.00;99.90;;;;;;5079304;28;20039;-80
2023/04/16 02:41:06;;;;;;;7.57;6.57;;;5.00;99.90;;;;;;5096390;28;20028;-81
2023/04/16 02:43:31;;;;;;;8.93;7.37;;;5.00;99.90;;;;;;5098779;28;20061;-81
2023/04/16 02:45:58;;;;;;;9.83;8.00;;;5.00;99.90;;;;;;5098719;28;20099;-81
2023/04/16 02:48:23;;;;;;;8.20;6.80;;;5.00;99.90;;;;;;5097358;28;20483;-81
2023/04/16 02:50:49;;;;;;;8.33;7.10;;;5.00;99.90;;;;;;5097585;28;20170;-81
2023/04/16 02:53:15;;;;;;;8.30;6.97;;;5.00;99.90;;;;;;5096963;28;20028;-81
2023/04/16 02:55:41;;;;;;;7.33;6.47;;;4.90;99.90;;;;;;5097314;28;20019;-81
2023/04/16 02:58:06;;;;;;;8.33;7.10;;;4.90;99.90;;;;;;5098796;28;20048;-81
2023/04/16 03:00:32;;;;;;;8.40;7.07;;;4.90;99.90;;;;;;5098588;28;20058;-81
2023/04/16 03:02:57;;;;;;;7.60;6.17;;;4.90;99.90;;;;;;5100101;28;20032;-81
2023/04/16 03:05:23;;;;;;;7.00;6.13;;;4.90;99.90;;;;;;5098382;28;20060;-81
2023/04/16 03:07:49;;;;;;;7.80;6.43;;;4.90;99.90;;;;;;5097797;28;20039;-81
2023/04/16 03:10:15;;;;;;;7.00;6.07;;;5.00;99.90;;;;;;5096365;28;20020;-80
2023/04/16 03:12:41;;;;;;;6.37;5.47;;;4.90;99.90;;;;;;5097086;28;20024;-81
2023/04/16 03:15:07;;;;;;;7.43;6.33;;;5.00;99.90;;;;;;5096912;28;20089;-80
2023/04/16 03:17:32;;;;;;;7.60;6.10;;;5.00;99.90;;;;;;5095225;28;20031;-81
2023/04/16 03:19:58;;;;;;;7.10;5.70;;;4.90;99.90;;;;;;5094917;28;20042;-81
2023/04/16 03:22:23;;;;;;;6.60;5.90;;;5.00;99.90;;;;;;5096954;28;21732;-81
2023/04/16 03:24:49;;;;;;;7.13;5.90;;;5.00;99.90;;;;;;5096183;28;20144;-81
2023/04/16 03:27:15;;;;;;;6.97;6.07;;;5.00;99.90;;;;;;5095544;28;20067;-81
2023/04/16 03:29:40;;;;;;;7.27;5.93;;;5.00;99.90;;;;;;5095758;28;20055;-81
2023/04/16 03:32:06;;;;;;;7.43;6.30;;;5.00;99.90;;;;;;5093710;28;20028;-81
2023/04/16 03:34:31;;;;;;;6.70;5.40;;;5.00;99.90;;;;;;5092000;28;20114;-81
2023/04/16 03:36:57;;;;;;;7.30;6.30;;;5.00;99.90;;;;;;5091342;28;20506;-82
2023/04/16 03:39:22;;;;;;;8.10;6.00;;;5.00;99.90;;;;;;5068253;28;20056;-81
2023/04/16 03:41:48;;;;;;;7.43;6.50;;;5.00;99.90;;;;;;5090279;28;20084;-81
2023/04/16 03:44:14;;;;;;;7.37;6.23;;;5.00;99.90;;;;;;5101265;28;20024;-81
2023/04/16 03:46:40;;;;;;;7.27;6.10;;;5.00;99.90;;;;;;5102127;28;20028;-82
2023/04/16 03:49:05;;;;;;;7.33;6.40;;;4.90;99.90;;;;;;5100816;28;20031;-81
2023/04/16 03:51:31;;;;;;;6.87;5.63;;;4.90;99.90;;;;;;5099749;28;20346;-82
2023/04/16 03:53:56;;;;;;;7.57;6.43;;;5.00;99.90;;;;;;5101142;28;20023;-82
2023/04/16 03:56:22;;;;;;;8.63;6.67;;;5.00;99.90;;;;;;5101143;28;20016;-82
2023/04/16 03:58:47;;;;;;;9.67;6.30;;;5.00;99.90;;;;;;5100577;28;20108;-82
2023/04/16 04:01:13;;;;;;;8.30;6.67;;;4.90;99.90;;;;;;5098936;28;20027;-82
2023/04/16 04:03:39;;;;;;;8.87;7.47;;;4.90;99.90;;;;;;5101227;28;20047;-81
2023/04/16 04:06:08;;;;;;;8.00;6.80;;;4.90;99.90;;;;;;5100462;28;20033;-82
2023/04/16 04:08:34;;;;;;;8.27;6.83;;;4.80;99.90;;;;;;5098567;28;20078;-81
2023/04/16 04:10:59;;;;;;;8.97;7.47;;;4.90;99.90;;;;;;5080524;28;20044;-82
2023/04/16 04:13:25;;;;;;;8.47;6.90;;;4.90;99.90;;;;;;5101674;28;20027;-81
2023/04/16 04:15:50;;;;;;;7.83;6.83;;;4.80;99.90;;;;;;5100456;28;20024;-82
2023/04/16 04:18:16;;;;;;;9.37;7.73;;;4.80;99.90;;;;;;5104579;28;20116;-82
2023/04/16 04:20:43;;;;;;;8.50;7.37;;;4.80;99.90;;;;;;5106465;28;20059;-81
2023/04/16 04:23:08;;;;;;;8.63;7.20;;;4.80;99.90;;;;;;5107831;28;20051;-81
2023/04/16 04:25:34;;;;;;;8.63;7.00;;;4.80;99.90;;;;;;5103539;28;20032;-82
2023/04/16 04:28:00;;;;;;;9.23;7.53;;;4.90;99.90;;;;;;5101504;28;20033;-82
2023/04/16 04:30:25;;;;;;;8.37;6.93;;;4.90;99.90;;;;;;5099947;28;20032;-82
2023/04/16 04:32:51;;;;;;;10.10;7.83;;;4.90;99.90;;;;;;5101977;28;20089;-82
2023/04/16 04:35:16;;;;;;;10.20;7.67;;;4.80;99.90;;;;;;5100915;28;20081;-81
2023/04/16 04:37:42;;;;;;;8.70;7.57;;;4.80;99.90;;;;;;5101018;28;20099;-81
2023/04/16 04:40:08;;;;;;;8.80;7.33;;;4.90;99.90;;;;;;5100837;28;20031;-82
2023/04/16 04:42:34;;;;;;;9.47;7.83;;;4.80;99.90;;;;;;5100837;28;20104;-82
2023/04/16 04:44:59;;;;;;;9.13;7.73;;;4.80;99.90;;;;;;5098589;28;20087;-81
2023/04/16 04:47:25;;;;;;;9.57;7.47;;;4.80;99.90;;;;;;5101036;28;20114;-81
2023/04/16 04:49:50;;;;;;;10.50;8.30;;;4.80;99.90;;;;;;5099558;28;20016;-81
2023/04/16 04:52:16;;;;;;;7.60;6.63;;;4.80;99.90;;;;;;5102041;28;20041;-81
2023/04/16 04:54:41;;;;;;;9.87;8.40;;;4.80;99.90;;;;;;5104037;28;20084;-81
2023/04/16 04:57:07;;;;;;;10.30;8.03;;;4.80;99.90;;;;;;5104424;28;20028;-81
2023/04/16 04:59:33;;;;;;;9.07;7.83;;;4.80;99.90;;;;;;5102295;28;20945;-81
2023/04/16 05:01:59;;;;;;;11.10;8.60;;;4.80;99.90;;;;;;5102849;28;20033;-82
2023/04/16 05:04:24;;;;;;;8.70;7.70;;;4.80;99.90;;;;;;5104262;28;20054;-79
2023/04/16 05:06:50;;;;;;;9.67;7.83;;;4.90;99.90;;;;;;5103805;28;20028;-81
2023/04/16 05:09:16;;;;;;;9.77;8.33;;;4.80;99.90;;;;;;5102055;28;20042;-81
2023/04/16 05:11:42;;;;;;;9.17;7.53;;;4.90;99.90;;;;;;5101969;28;20024;-81
2023/04/16 05:14:07;;;;;;;9.93;7.90;;;4.90;99.90;;;;;;5102410;28;20027;-81
2023/04/16 05:16:36;;;;;;;11.77;8.07;;;4.90;99.90;;;;;;5102603;28;20027;-81
2023/04/16 05:19:02;;;;;;;9.17;7.33;;;4.90;99.90;;;;;;5083305;28;20042;-83
2023/04/16 05:21:28;;;;;;;8.97;7.70;;;5.00;99.90;;;;;;5101441;28;20031;-81
2023/04/16 05:23:54;;;;;;;8.43;7.20;;;5.00;99.90;;;;;;5101735;28;20044;-81
2023/04/16 05:26:20;;;;;;;9.27;7.17;;;5.00;99.90;;;;;;5099715;28;20050;-81
2023/04/16 05:28:45;;;;;;;10.77;8.43;;;5.00;99.90;;;;;;5102364;28;20043;-83
2023/04/16 05:31:11;;;;;;;9.67;7.73;;;5.00;99.90;;;;;;5102312;28;20492;-83
2023/04/16 05:33:36;;;;;;;6.63;5.83;;;5.00;99.90;;;;;;5103461;28;20020;-80
2023/04/16 05:36:02;;;;;;;6.37;5.53;;;5.00;99.90;;;;;;5102335;28;20111;-81
2023/04/16 05:38:27;;;;;;;5.90;5.30;;;5.10;99.90;;;;;;5103534;28;20058;-81
2023/04/16 05:40:53;;;;;;;6.60;5.90;;;5.10;99.90;;;;;;5101751;28;20023;-81
2023/04/16 05:43:18;;;;;;;5.60;4.97;;;5.10;99.90;;;;;;5103017;28;20059;-81
2023/04/16 05:45:44;;;;;;;5.80;4.90;;;5.20;99.90;;;;;;5101910;28;20049;-81
2023/04/16 05:48:10;;;;;;;5.70;4.80;;;5.20;99.90;;;;;;5102413;28;20036;-81
2023/04/16 05:50:35;;;;;;;4.53;4.10;;;5.30;99.90;;;;;;5100305;28;20021;-81
2023/04/16 05:53:04;;;;;;;4.23;3.60;;;5.40;99.90;;;;;;5103327;28;20152;-81
2023/04/16 05:55:30;;;;;;;4.17;3.77;;;5.50;99.90;;;;;;5102908;28;20020;-82
2023/04/16 05:57:55;;;;;;;4.80;3.33;;;5.50;99.90;;;;;;5103635;28;20035;-81
2023/04/16 06:00:21;;;;;;;3.57;3.27;;;5.50;99.90;;;;;;5100185;28;20079;-81
2023/04/16 06:02:46;;;;;;;3.47;3.17;;;5.50;99.90;;;;;;5100460;28;20510;-81
2023/04/16 06:05:12;;;;;;;3.70;3.20;;;5.50;99.90;;;;;;5102250;28;20024;-81
2023/04/16 06:07:38;;;;;;;3.33;3.03;;;5.60;99.90;;;;;;5101222;28;20020;-82
2023/04/16 06:10:03;;;;;;;3.20;2.80;;;5.70;99.90;;;;;;5097549;28;20567;-83
2023/04/16 06:12:29;;;;;;;2.97;2.67;;;5.70;99.90;;;;;;5099557;28;20052;-82
2023/04/16 06:14:55;;;;;;;3.23;2.57;;;5.70;99.90;;;;;;5097603;28;20065;-81
2023/04/16 06:17:21;;;;;;;2.83;2.33;;;5.70;99.90;;;;;;5097473;28;20143;-81
2023/04/16 06:19:47;;;;;;;3.10;2.80;;;5.70;99.90;;;;;;5097988;28;20023;-81
2023/04/16 06:22:13;;;;;;;3.97;2.30;;;5.70;99.90;;;;;;5097056;28;20120;-84
2023/04/16 06:24:38;;;;;;;2.43;2.10;;;5.90;99.90;;;;;;5099840;28;20059;-87
2023/04/16 06:27:04;;;;;;;2.10;1.90;;;5.80;99.90;;;;;;5099506;28;20095;-82
2023/04/16 06:29:30;;;;;;;2.57;2.03;;;5.80;99.90;;;;;;5098161;28;20944;-83
2023/04/16 06:31:55;;;;;;;2.23;1.80;;;5.80;99.90;;;;;;5098951;28;20032;-81
2023/04/16 06:34:21;;;;;;;2.10;1.60;;;5.70;99.90;;;;;;5104662;28;20058;-83
2023/04/16 06:36:46;;;;;;;1.83;1.60;;;5.70;99.90;;;;;;5103226;28;20163;-83
2023/04/16 06:39:12;;;;;;;2.17;1.70;;;5.80;99.90;;;;;;5096808;28;20015;-83
2023/04/16 06:41:37;;;;;;;1.70;1.40;;;5.80;99.90;;;;;;5102006;28;20030;-80
2023/04/16 06:44:03;;;;;;;1.90;1.67;;;5.80;99.90;;;;;;5101377;28;20024;-81
2023/04/16 06:46:28;;;;;;;3.73;1.40;;;5.70;99.90;;;;;;5101196;28;20037;-80
2023/04/16 06:48:54;;;;;;;1.50;1.40;;;5.80;99.90;;;;;;5101875;28;20019;-80
2023/04/16 06:51:20;;;;;;;2.20;1.30;;;5.70;99.90;;;;;;5100941;28;20024;-81
2023/04/16 06:53:45;;;;;;;1.40;1.30;;;5.70;99.90;;;;;;5102739;28;20028;-80
2023/04/16 06:56:11;;;;;;;3.00;2.17;;;5.80;99.90;;;;;;5082953;28;20051;-81
2023/04/16 06:58:36;;;;;;;1.97;1.40;;;5.90;99.90;;;;;;5097961;28;20139;-81
2023/04/16 07:01:02;;;;;;;1.80;1.40;;;6.00;99.90;;;;;;5094934;28;20044;-81
2023/04/16 07:03:28;;;;;;;2.03;1.40;;;6.00;99.90;;;;;;5099660;28;20035;-81
2023/04/16 07:05:53;;;;;;;3.40;1.50;;;6.10;99.90;;;;;;5098733;28;20012;-82
2023/04/16 07:08:19;;;;;;;1.40;1.30;;;6.20;99.90;;;;;;5094020;28;20150;-81
2023/04/16 07:10:44;;;;;;;2.07;1.10;;;6.30;99.90;;;;;;5093526;28;20102;-84
2023/04/16 07:13:10;;;;;;;1.10;1.00;;;6.40;99.90;;;;;;5095495;28;20020;-84
2023/04/16 07:15:39;;;;;;;1.23;1.13;;;6.50;99.90;;;;;;5092359;28;20160;-83
2023/04/16 07:18:04;;;;;;;1.77;1.23;;;6.60;99.90;;;;;;5092025;28;20027;-85
2023/04/16 07:20:30;;;;;;;1.50;1.17;;;6.60;99.90;;;;;;5090554;28;20043;-82
2023/04/16 07:22:58;;;;;;;2.10;1.13;;;6.60;99.90;;;;;;5091476;28;20744;-83
2023/04/16 07:25:23;;;;;;;3.17;0.93;;;6.70;99.90;;;;;;5086578;28;20410;-83
2023/04/16 07:27:49;;;;;;;1.70;0.93;;;6.80;99.90;;;;;;5098098;28;20032;-84
2023/04/16 07:30:17;;;;;;;1.00;0.90;;;6.80;99.90;;;;;;5100882;28;20352;-83
2023/04/16 07:32:42;;;;;;;1.63;1.10;;;6.80;99.90;;;;;;5100867;28;21698;-81
2023/04/16 07:35:08;;;;;;;0.80;0.80;;;6.80;99.90;;;;;;5101783;28;20024;-80
2023/04/16 07:37:34;;;;;;;1.50;0.90;;;6.90;99.90;;;;;;5100109;28;21416;-80
2023/04/16 07:39:59;;;;;;;1.30;0.90;;;6.90;99.90;;;;;;5091000;28;20063;-76
2023/04/16 07:42:26;;;;;;;1.20;0.90;;;7.00;99.90;;;;;;5095780;28;20046;-82
2023/04/16 07:44:52;;;;;;;0.90;0.80;;;7.10;99.90;;;;;;5100447;28;20055;-81
2023/04/16 07:47:18;;;;;;;1.87;1.10;;;7.20;99.90;;;;;;5101814;28;20629;-81
2023/04/16 07:49:43;;;;;;;0.90;0.80;;;7.40;99.90;;;;;;5099472;28;20028;-81
2023/04/16 07:52:09;;;;;;;1.97;1.10;;;7.60;99.90;;;;;;5099512;28;20071;-81
2023/04/16 07:54:35;;;;;;;0.90;0.90;;;7.80;99.90;;;;;;5101215;28;20038;-82
2023/04/16 07:57:00;;;;;;;2.03;0.80;;;8.10;99.90;;;;;;5081285;28;20052;-82
2023/04/16 07:59:26;;;;;;;1.27;0.80;;;8.20;99.90;;;;;;5102732;28;20035;-83
2023/04/16 08:01:52;;;;;;;1.13;0.60;;;8.40;99.90;;;;;;5100076;28;20028;-82
2023/04/16 08:04:23;;;;;;;0.83;0.70;;;8.50;99.90;;;;;;5098272;28;20027;-84
2023/04/16 08:06:49;;;;;;;1.77;0.77;;;8.50;99.90;;;;;;5103737;28;20091;-83
2023/04/16 08:09:15;;;;;;;1.37;0.80;;;8.60;99.90;;;;;;5103397;28;20024;-83
2023/04/16 08:11:41;;;;;;;0.90;0.70;;;8.60;99.90;;;;;;5101315;28;20035;-83
2023/04/16 08:14:06;;;;;;;1.30;0.73;;;8.50;99.90;;;;;;5103498;28;20043;-82
2023/04/16 08:16:32;;;;;;;1.10;0.80;;;8.30;99.90;;;;;;5104559;28;20731;-80
2023/04/16 08:18:59;;;;;;;0.93;0.80;;;8.20;99.90;;;;;;5103498;28;20034;-81
2023/04/16 08:21:26;;;;;;;1.17;0.80;;;8.20;99.90;;;;;;5104211;28;20020;-81
2023/04/16 08:23:52;;;;;;;0.87;0.70;;;8.20;99.90;;;;;;5106434;28;20122;-81
2023/04/16 08:26:19;;;;;;;1.20;0.80;;;8.20;99.90;;;;;;5105795;28;20035;-80
2023/04/16 08:28:44;;;;;;;1.90;0.70;;;8.30;99.90;;;;;;5107563;28;20182;-81
2023/04/16 08:31:10;;;;;;;0.70;0.60;;;8.30;99.90;;;;;;5104850;28;20047;-82
2023/04/16 08:33:36;;;;;;;0.60;0.60;;;8.20;99.90;;;;;;5090085;28;20031;-81
2023/04/16 08:36:02;;;;;;;1.30;0.70;;;8.30;99.90;;;;;;5089716;28;20050;-81
2023/04/16 08:38:27;;;;;;;1.60;0.60;;;8.40;99.90;;;;;;5088748;28;20012;-81
2023/04/16 08:40:55;;;;;;;1.10;0.83;;;8.40;99.90;;;;;;5106134;28;20042;-82
2023/04/16 08:43:23;;;;;;;1.50;1.07;;;8.50;99.90;;;;;;5106094;28;20062;-82
2023/04/16 08:45:52;;;;;;;0.77;0.77;;;8.60;99.90;;;;;;5106430;28;20034;-82
2023/04/16 08:48:20;;;;;;;1.57;0.97;;;8.60;99.90;;;;;;5105005;28;20023;-82
2023/04/16 08:50:51;;;;;;;0.87;0.70;;;8.70;99.90;;;;;;5105048;28;20024;-82
2023/04/16 08:53:20;;;;;;;0.60;0.60;;;8.70;99.90;;;;;;5107131;28;20093;-82
2023/04/16 08:55:48;;;;;;;1.40;0.83;;;8.80;99.90;;;;;;5103753;28;20043;-82
2023/04/16 08:58:19;;;;;;;0.83;0.80;;;8.80;99.90;;;;;;5106744;28;20073;-82
2023/04/16 09:00:47;;;;;;;1.13;0.93;;;8.90;99.90;;;;;;5107821;28;20016;-82
2023/04/16 09:03:13;;;;;;;0.90;0.70;;;9.00;99.90;;;;;;5107269;28;20791;-82
2023/04/16 09:05:39;;;;;;;0.93;0.60;;;9.00;99.90;;;;;;5106110;28;20126;-81
2023/04/16 09:08:07;;;;;;;0.73;0.70;;;9.00;99.90;;;;;;5108057;28;20062;-82
2023/04/16 09:10:34;;;;;;;0.80;0.80;;;9.10;99.90;;;;;;5106556;28;20032;-81
2023/04/16 09:13:00;;;;;;;0.80;0.80;;;9.10;99.90;;;;;;5107325;28;20072;-82
2023/04/16 09:15:28;;;;;;;0.90;0.73;;;9.10;99.90;;;;;;5107847;28;20032;-81
2023/04/16 09:17:56;;;;;;;1.23;0.60;;;9.10;99.90;;;;;;5107261;28;20039;-81
2023/04/16 09:20:22;;;;;;;0.70;0.70;;;9.30;99.90;;;;;;5104632;28;20039;-80
2023/04/16 09:22:48;;;;;;;1.07;0.80;;;9.30;99.90;;;;;;5106742;28;20036;-82
2023/04/16 09:25:14;;;;;;;0.77;0.73;;;9.30;99.90;;;;;;5103708;28;20024;-82
2023/04/16 09:27:39;;;;;;;0.70;0.70;;;9.50;99.90;;;;;;5105296;28;20017;-82
2023/04/16 09:30:26;;;;;;;0.70;0.70;;;9.60;99.90;;;;;;5106801;28;20023;-82
2023/04/16 09:33:10;;;;;;;0.70;0.70;;;9.70;99.90;;;;;;5107234;28;20043;-82
2023/04/16 09:35:51;;;;;;;0.90;0.80;;;9.70;99.90;;;;;;5108809;28;20053;-82
2023/04/16 09:38:17;;;;;;;0.80;0.80;;;9.80;99.90;;;;;;5106845;28;20028;-82
2023/04/16 09:40:43;;;;;;;3.63;2.20;;;9.80;99.90;;;;;;5085451;28;20035;-83
2023/04/16 09:43:16;;;;;;;1.57;1.03;;;9.80;99.90;;;;;;5106905;28;20031;-83
2023/04/16 09:45:52;;;;;;;0.70;0.70;;;9.90;99.90;;;;;;5105129;28;20028;-83
2023/04/16 09:48:32;;;;;;;0.70;0.63;;;10.10;99.90;;;;;;5105967;28;21782;-82
2023/04/16 09:50:58;;;;;;;0.80;0.70;;;10.10;99.90;;;;;;5106207;28;20019;-82
2023/04/16 09:53:25;;;;;;;0.80;0.73;;;10.20;99.90;;;;;;5106829;28;20020;-82
2023/04/16 09:55:51;;;;;;;1.00;0.60;;;10.20;99.90;;;;;;5105634;28;20055;-82
2023/04/16 09:58:23;;;;;;;0.67;0.60;;;10.20;99.90;;;;;;5104986;28;20027;-83
2023/04/16 10:00:49;;;;;;;0.70;0.70;;;10.10;99.90;;;;;;5104476;28;20046;-82
2023/04/16 10:03:14;;;;;;;0.73;0.70;;;10.00;99.90;;;;;;5104905;28;20027;-82
2023/04/16 10:05:40;;;;;;;1.57;0.60;;;9.80;99.90;;;;;;5107558;28;20008;-85
2023/04/16 10:08:11;;;;;;;0.53;0.53;;;9.80;99.90;;;;;;5106886;28;20038;-84
2023/04/16 10:10:37;;;;;;;0.80;0.60;;;9.80;99.90;;;;;;5107136;28;20691;-84
2023/04/16 10:13:03;;;;;;;0.60;0.60;;;9.70;99.90;;;;;;5106188;28;20036;-84
2023/04/16 10:15:29;;;;;;;1.53;0.90;;;9.50;99.90;;;;;;5088549;28;20016;-84
2023/04/16 10:17:55;;;;;;;0.60;0.60;;;9.50;99.90;;;;;;5109117;28;20476;-84
2023/04/16 10:20:23;;;;;;;0.60;0.50;;;9.60;99.90;;;;;;5104546;28;20023;-84
2023/04/16 10:22:49;;;;;;;1.27;0.90;;;9.60;99.90;;;;;;5106849;28;20040;-82
2023/04/16 10:25:15;;;;;;;0.70;0.70;;;9.50;99.90;;;;;;5106252;28;20024;-81
2023/04/16 10:27:41;;;;;;;0.80;0.70;;;9.60;99.90;;;;;;5106024;28;20028;-84
2023/04/16 10:30:08;;;;;;;0.87;0.80;;;9.70;99.90;;;;;;5105670;28;21088;-83
2023/04/16 10:32:34;;;;;;;0.60;0.60;;;9.80;99.90;;;;;;5106358;28;20027;-83
2023/04/16 10:35:00;;;;;;;0.60;0.60;;;10.10;99.90;;;;;;5103923;28;20025;-84
2023/04/16 10:37:32;;;;;;;1.10;0.90;;;10.70;99.90;;;;;;5103974;28;20029;-84
2023/04/16 10:39:58;;;;;;;0.60;0.60;;;10.80;99.90;;;;;;5103909;28;20039;-84
2023/04/16 10:42:24;;;;;;;0.63;0.63;;;10.70;99.90;;;;;;5103559;28;20046;-83
2023/04/16 10:44:51;;;;;;;0.60;0.60;;;10.60;99.90;;;;;;5102683;28;20047;-84
2023/04/16 10:47:17;;;;;;;0.70;0.70;;;10.50;99.90;;;;;;5101759;28;20058;-84
2023/04/16 10:49:42;;;;;;;0.90;0.70;;;10.30;99.90;;;;;;5100486;28;20020;-85
2023/04/16 10:52:15;;;;;;;0.70;0.70;;;10.20;99.90;;;;;;5102514;28;20377;-85
2023/04/16 10:54:41;;;;;;;0.80;0.80;;;10.10;99.90;;;;;;5077741;28;20101;-85
2023/04/16 10:57:08;;;;;;;2.10;0.80;;;10.20;99.90;;;;;;5093365;28;20405;-84
2023/04/16 10:59:37;;;;;;;3.30;0.80;;;10.20;99.90;;;;;;5095073;28;20032;-84
2023/04/16 11:02:13;;;;;;;0.80;0.70;;;10.20;99.90;;;;;;5094133;28;20047;-84
2023/04/16 11:04:42;;;;;;;0.60;0.60;;;10.30;99.90;;;;;;5090851;28;20117;-84
2023/04/16 11:07:10;;;;;;;1.17;0.60;;;10.30;99.90;;;;;;5088971;28;20028;-85
2023/04/16 11:09:58;;;;;;;1.43;0.70;;;10.40;99.90;;;;;;5089083;28;20043;-84
2023/04/16 11:12:46;;;;;;;0.80;0.70;;;10.40;99.90;;;;;;5097946;28;20039;-84
2023/04/16 11:15:22;;;;;;;0.70;0.70;;;10.40;99.90;;;;;;5103820;28;20206;-83
2023/04/16 11:17:50;;;;;;;0.90;0.83;;;10.30;99.90;;;;;;5104997;28;20036;-84
2023/04/16 11:20:18;;;;;;;2.93;0.90;;;10.20;99.90;;;;;;5086068;28;20071;-71
2023/04/16 11:22:46;;;;;;;1.07;0.80;;;10.10;99.90;;;;;;5066847;28;21391;-71
2023/04/16 11:25:17;;;;;;;0.77;0.70;;;10.00;99.90;;;;;;5085403;28;20032;-70
2023/04/16 11:27:43;;;;;;;3.50;1.40;;;9.90;99.90;;;;;;5096024;28;20038;-82
2023/04/16 11:30:10;;;;;;;3.27;2.20;;;9.80;99.90;;;;;;5098911;28;20136;-84
2023/04/16 11:32:37;;;;;;;5.27;2.00;;;9.70;99.90;;;;;;5098343;28;20095;-83
2023/04/16 11:35:14;;;;;;;2.43;1.50;;;9.70;99.90;;;;;;5100885;28;20168;-84
2023/04/16 11:37:41;;;;;;;2.00;1.10;;;9.70;99.90;;;;;;5099857;28;20030;-85
2023/04/16 11:40:11;;;;;;;1.10;0.80;;;9.70;99.90;;;;;;5077511;28;20036;-84
2023/04/16 11:42:42;;;;;;;0.87;0.80;;;9.60;99.90;;;;;;5098841;28;20040;-83
2023/04/16 11:45:09;;;;;;;5.63;2.60;;;9.60;99.90;;;;;;5099643;28;20032;-83
2023/04/16 11:47:52;;;;;;;8.70;4.57;;;9.60;99.90;;;;;;5103778;28;20028;-84
2023/04/16 11:50:26;;;;;;;4.40;2.20;;;9.60;99.90;;;;;;5103140;28;20035;-85
2023/04/16 11:52:56;;;;;;;2.37;1.30;;;9.70;99.90;;;;;;5083256;28;20024;-86
2023/04/16 11:55:23;;;;;;;0.80;0.80;;;9.70;99.90;;;;;;5104893;28;20034;-83
2023/04/16 11:57:49;;;;;;;0.90;0.80;;;9.70;99.90;;;;;;5105686;28;20032;-83
2023/04/16 12:00:15;;;;;;;0.90;0.80;;;9.60;99.90;;;;;;5106619;28;20050;-83
2023/04/16 12:02:49;;;;;;;1.63;1.10;;;9.60;99.90;;;;;;5109410;28;20036;-83
2023/04/16 12:05:30;;;;;;;1.20;1.00;;;9.60;99.90;;;;;;5086314;28;20765;-84
2023/04/16 12:08:03;;;;;;;1.10;0.80;;;9.50;99.90;;;;;;5105434;28;20277;-83
2023/04/16 12:10:30;;;;;;;0.70;0.70;;;9.40;99.90;;;;;;5105366;28;20035;-84
2023/04/16 12:13:14;;;;;;;1.13;0.70;;;9.30;99.90;;;;;;5111906;28;20019;-83
2023/04/16 12:15:54;;;;;;;0.80;0.80;;;9.20;99.90;;;;;;5109912;28;20038;-83
2023/04/16 12:18:22;;;;;;;2.10;1.20;;;9.20;99.90;;;;;;5111579;28;20931;-84
2023/04/16 12:20:50;;;;;;;1.87;1.30;;;9.20;99.90;;;;;;5110871;28;20035;-85
2023/04/16 12:23:33;;;;;;;2.23;1.50;;;9.10;99.90;;;;;;5111976;28;20032;-84
2023/04/16 12:26:09;;;;;;;2.43;1.60;;;9.00;99.90;;;;;;5111596;28;20038;-84
2023/04/16 12:28:37;;;;;;;1.43;1.10;;;8.90;99.90;;;;;;5109729;28;20027;-84
2023/04/16 12:31:03;;;;;;;2.30;0.80;;;8.90;99.90;;;;;;5111240;28;20043;-83
2023/04/16 12:33:29;;;;;;;0.97;0.80;;;8.90;99.90;;;;;;5111970;28;20567;-82
2023/04/16 12:35:54;;;;;;;0.80;0.80;;;8.90;99.90;;;;;;5112136;28;20047;-82
2023/04/16 12:38:20;;;;;;;1.80;1.00;;;8.90;99.90;;;;;;5110543;28;20024;-83
2023/04/16 12:40:46;;;;;;;1.43;0.93;;;9.00;99.90;;;;;;5110051;28;20536;-82
2023/04/16 12:43:12;;;;;;;1.50;1.00;;;8.90;99.90;;;;;;5109524;28;20063;-82
2023/04/16 12:45:38;;;;;;;1.20;1.00;;;8.90;99.90;;;;;;5104894;28;20032;-84
2023/04/16 12:48:04;;;;;;;1.60;1.00;;;8.90;99.90;;;;;;5108504;28;20035;-83
2023/04/16 12:50:30;;;;;;;5.27;0.90;;;8.90;99.90;;;;;;5106140;28;20433;-83
2023/04/16 12:52:56;;;;;;;1.50;1.00;;;8.90;99.90;;;;;;5107783;28;20032;-83